createdAt,value
2022-07-29T00:00:36.138Z,62.90
2022-07-29T00:01:41.604Z,62.83
2022-07-29T00:02:46.025Z,62.81
2022-07-29T00:03:50.033Z,62.78
2022-07-29T00:05:00.659Z,63.08
2022-07-29T00:06:06.993Z,62.54
2022-07-29T00:07:23.358Z,62.64
2022-07-29T00:08:26.521Z,62.30
2022-07-29T00:09:30.811Z,62.34
2022-07-29T00:10:33.938Z,62.48
2022-07-29T00:11:40.097Z,62.72
2022-07-29T00:12:43.205Z,62.60
2022-07-29T00:13:50.858Z,62.11
2022-07-29T00:14:56.716Z,62.26
2022-07-29T00:16:04.880Z,62.24
2022-07-29T00:17:09.955Z,62.42
2022-07-29T00:18:16.068Z,62.25
2022-07-29T00:19:20.468Z,62.08
2022-07-29T00:20:24.409Z,62.24
2022-07-29T00:21:28.758Z,62.07
2022-07-29T00:22:32.020Z,62.14
2022-07-29T00:23:39.596Z,62.19
2022-07-29T00:24:43.128Z,62.07
2022-07-29T00:25:47.553Z,61.96
2022-07-29T00:26:52.070Z,62.33
2022-07-29T00:27:58.615Z,61.74
2022-07-29T00:29:32.353Z,62.15
2022-07-29T00:30:26.819Z,61.92
2022-07-29T00:31:30.440Z,61.90
2022-07-29T00:32:35.076Z,61.88
2022-07-29T00:33:38.597Z,62.01
2022-07-29T00:35:00.115Z,62.01
2022-07-29T00:36:04.431Z,61.71
2022-07-29T00:37:08.094Z,61.85
2022-07-29T00:38:13.320Z,61.82
2022-07-29T00:39:16.300Z,62.07
2022-07-29T00:40:23.591Z,62.18
2022-07-29T00:41:26.881Z,62.00
2022-07-29T00:42:32.782Z,61.96
2022-07-29T00:43:38.994Z,61.74
2022-07-29T00:44:44.388Z,61.71
2022-07-29T00:45:51.624Z,61.59
2022-07-29T00:46:54.791Z,61.51
2022-07-29T00:47:59.430Z,61.58
2022-07-29T00:49:03.271Z,61.83
2022-07-29T00:50:08.749Z,61.96
2022-07-29T00:51:12.898Z,61.76
2022-07-29T00:52:16.939Z,61.99
2022-07-29T00:53:22.379Z,61.67
2022-07-29T00:54:26.069Z,61.78
2022-07-29T00:55:30.716Z,61.77
2022-07-29T00:56:34.856Z,61.52
2022-07-29T00:57:43.817Z,61.63
2022-07-29T00:58:49.150Z,61.62
2022-07-29T00:59:53.454Z,61.50
2022-07-29T01:00:57.044Z,61.62
2022-07-29T01:02:07.729Z,61.37
2022-07-29T01:03:12.300Z,61.19
2022-07-29T01:04:16.226Z,61.30
2022-07-29T01:05:23.828Z,61.18
2022-07-29T01:06:27.721Z,61.15
2022-07-29T01:07:33.019Z,61.20
2022-07-29T01:08:37.461Z,61.05
2022-07-29T01:09:46.222Z,61.11
2022-07-29T01:10:52.073Z,60.97
2022-07-29T01:11:57.579Z,61.01
2022-07-29T01:13:04.676Z,60.64
2022-07-29T01:14:12.166Z,60.67
2022-07-29T01:15:16.634Z,60.85
2022-07-29T01:16:26.801Z,60.73
2022-07-29T01:17:34.451Z,60.62
2022-07-29T01:18:41.842Z,60.43
2022-07-29T01:19:54.219Z,60.44
2022-07-29T01:21:24.619Z,60.32
2022-07-29T01:22:32.697Z,59.86
2022-07-29T01:23:55.453Z,60.10
2022-07-29T01:25:14.939Z,59.86
2022-07-29T01:26:33.201Z,60.03
2022-07-29T01:27:46.487Z,59.99
2022-07-29T01:29:15.422Z,60.28
2022-07-29T01:30:21.689Z,59.65
2022-07-29T01:31:33.169Z,59.71
2022-07-29T01:32:42.298Z,59.63
2022-07-29T01:33:50.442Z,59.78
2022-07-29T01:34:57.390Z,59.35
2022-07-29T01:36:02.009Z,59.53
2022-07-29T01:37:11.166Z,59.67
2022-07-29T01:38:19.147Z,59.64
2022-07-29T01:39:28.327Z,59.38
2022-07-29T01:40:37.946Z,59.21
2022-07-29T01:41:50.475Z,59.29
2022-07-29T01:42:57.352Z,59.18
2022-07-29T01:44:05.454Z,59.09
2022-07-29T01:45:17.105Z,59.50
2022-07-29T01:46:24.579Z,59.41
2022-07-29T01:47:35.827Z,59.46
2022-07-29T01:48:43.693Z,59.30
2022-07-29T01:49:52.227Z,59.10
2022-07-29T01:51:00.302Z,59.08
2022-07-29T01:52:07.513Z,59.10
2022-07-29T01:53:12.291Z,59.09
2022-07-29T01:54:21.768Z,58.85
2022-07-29T01:55:28.789Z,59.03
2022-07-29T01:56:35.328Z,58.86
2022-07-29T01:57:54.356Z,58.85
2022-07-29T01:58:58.871Z,58.68
2022-07-29T02:00:04.442Z,58.70
2022-07-29T02:01:17.284Z,58.77
2022-07-29T02:02:22.379Z,58.98
2022-07-29T02:03:25.739Z,58.94
2022-07-29T02:04:30.570Z,58.78
2022-07-29T02:05:34.658Z,58.79
2022-07-29T02:06:40.792Z,58.60
2022-07-29T02:07:44.942Z,58.69
2022-07-29T02:08:50.964Z,58.73
2022-07-29T02:09:54.657Z,58.67
2022-07-29T02:10:59.806Z,58.27
2022-07-29T02:12:04.278Z,58.73
2022-07-29T02:13:09.630Z,58.37
2022-07-29T02:14:14.597Z,58.36
2022-07-29T02:15:19.617Z,58.26
2022-07-29T02:16:24.916Z,58.29
2022-07-29T02:17:34.143Z,58.53
2022-07-29T02:18:39.340Z,58.43
2022-07-29T02:19:46.229Z,58.62
2022-07-29T02:20:52.487Z,58.62
2022-07-29T02:21:57.731Z,58.46
2022-07-29T02:23:02.156Z,58.21
2022-07-29T02:24:07.818Z,58.61
2022-07-29T02:25:14.040Z,58.32
2022-07-29T02:26:19.885Z,58.36
2022-07-29T02:27:25.459Z,58.55
2022-07-29T02:28:30.543Z,58.42
2022-07-29T02:29:35.636Z,58.30
2022-07-29T02:30:43.575Z,58.47
2022-07-29T02:31:50.120Z,58.34
2022-07-29T02:32:54.649Z,58.40
2022-07-29T02:33:58.936Z,58.63
2022-07-29T02:35:03.729Z,58.41
2022-07-29T02:36:07.560Z,58.49
2022-07-29T02:37:12.177Z,58.55
2022-07-29T02:38:35.526Z,58.49
2022-07-29T02:39:40.306Z,58.46
2022-07-29T02:40:44.599Z,58.39
2022-07-29T02:41:50.405Z,58.30
2022-07-29T02:42:53.652Z,58.20
2022-07-29T02:43:59.207Z,58.12
2022-07-29T02:45:03.666Z,58.21
2022-07-29T02:46:28.422Z,58.50
2022-07-29T02:47:41.490Z,58.14
2022-07-29T02:48:57.987Z,58.25
2022-07-29T02:50:05.605Z,58.16
2022-07-29T02:51:12.739Z,58.34
2022-07-29T02:52:42.379Z,58.36
2022-07-29T02:53:46.375Z,58.17
2022-07-29T02:54:55.651Z,58.30
2022-07-29T02:56:01.639Z,58.09
2022-07-29T02:57:11.781Z,58.12
2022-07-29T02:58:20.245Z,58.33
2022-07-29T02:59:28.497Z,58.34
2022-07-29T03:00:33.522Z,58.26
2022-07-29T03:01:38.300Z,58.12
2022-07-29T03:02:47.681Z,57.92
2022-07-29T03:03:53.388Z,58.22
2022-07-29T03:04:58.419Z,58.06
2022-07-29T03:06:05.371Z,57.54
2022-07-29T03:07:09.894Z,57.72
2022-07-29T03:08:13.620Z,58.07
2022-07-29T03:09:17.985Z,57.84
2022-07-29T03:10:22.034Z,57.78
2022-07-29T03:11:41.457Z,57.73
2022-07-29T03:12:50.665Z,57.67
2022-07-29T03:13:54.161Z,57.61
2022-07-29T03:14:59.558Z,57.67
2022-07-29T03:16:03.129Z,57.39
2022-07-29T03:17:08.050Z,57.47
2022-07-29T03:18:13.022Z,57.79
2022-07-29T03:19:17.466Z,57.68
2022-07-29T03:20:20.940Z,57.62
2022-07-29T03:21:25.152Z,57.71
2022-07-29T03:22:29.239Z,57.31
2022-07-29T03:23:35.236Z,57.78
2022-07-29T03:24:41.248Z,57.67
2022-07-29T03:25:44.714Z,57.77
2022-07-29T03:26:48.892Z,57.57
2022-07-29T03:27:52.097Z,57.92
2022-07-29T03:28:57.540Z,57.66
2022-07-29T03:30:00.578Z,57.53
2022-07-29T03:31:04.792Z,57.49
2022-07-29T03:32:09.200Z,57.45
2022-07-29T03:33:15.641Z,57.70
2022-07-29T03:34:19.026Z,57.75
2022-07-29T03:35:27.612Z,57.79
2022-07-29T03:36:31.819Z,57.63
2022-07-29T03:37:37.668Z,57.65
2022-07-29T03:38:41.854Z,57.46
2022-07-29T03:39:46.677Z,57.78
2022-07-29T03:40:55.246Z,57.57
2022-07-29T03:42:01.402Z,57.96
2022-07-29T03:43:05.336Z,57.56
2022-07-29T03:44:10.404Z,58.11
2022-07-29T03:45:18.041Z,57.47
2022-07-29T03:46:22.725Z,57.43
2022-07-29T03:47:43.727Z,57.87
2022-07-29T03:48:59.204Z,57.74
2022-07-29T03:50:06.934Z,57.82
2022-07-29T03:51:15.019Z,57.50
2022-07-29T03:52:18.521Z,57.64
2022-07-29T03:53:23.168Z,57.23
2022-07-29T03:54:26.368Z,57.10
2022-07-29T03:55:31.996Z,57.08
2022-07-29T03:56:39.255Z,57.47
2022-07-29T03:57:44.868Z,57.39
2022-07-29T03:58:48.911Z,57.19
2022-07-29T03:59:54.077Z,57.60
2022-07-29T04:00:57.278Z,57.33
2022-07-29T04:02:02.063Z,57.44
2022-07-29T04:03:05.816Z,57.42
2022-07-29T04:04:17.204Z,57.36
2022-07-29T04:05:20.839Z,57.40
2022-07-29T04:06:26.900Z,57.08
2022-07-29T04:07:30.940Z,57.27
2022-07-29T04:08:35.487Z,57.05
2022-07-29T04:09:39.031Z,57.14
2022-07-29T04:10:43.206Z,57.30
2022-07-29T04:12:02.104Z,57.25
2022-07-29T04:13:07.767Z,57.45
2022-07-29T04:14:10.849Z,57.16
2022-07-29T04:15:15.180Z,56.89
2022-07-29T04:16:18.343Z,56.91
2022-07-29T04:17:22.563Z,57.31
2022-07-29T04:18:25.889Z,57.34
2022-07-29T04:19:31.723Z,56.93
2022-07-29T04:20:35.077Z,57.22
2022-07-29T04:21:40.610Z,56.86
2022-07-29T04:22:43.737Z,57.00
2022-07-29T04:23:53.106Z,56.90
2022-07-29T04:25:00.309Z,57.02
2022-07-29T04:26:10.830Z,56.75
2022-07-29T04:27:14.051Z,56.93
2022-07-29T04:28:18.447Z,57.21
2022-07-29T04:29:21.507Z,57.22
2022-07-29T04:30:25.722Z,57.07
2022-07-29T04:31:28.968Z,57.43
2022-07-29T04:32:33.121Z,57.42
2022-07-29T04:33:36.241Z,57.00
2022-07-29T04:34:41.869Z,57.28
2022-07-29T04:35:50.217Z,57.12
2022-07-29T04:36:54.857Z,56.64
2022-07-29T04:37:58.120Z,56.67
2022-07-29T04:39:02.467Z,56.68
2022-07-29T04:40:07.019Z,56.64
2022-07-29T04:41:11.375Z,56.49
2022-07-29T04:42:14.794Z,56.29
2022-07-29T04:43:23.192Z,56.15
2022-07-29T04:44:28.945Z,56.08
2022-07-29T04:45:33.457Z,55.99
2022-07-29T04:46:37.152Z,56.07
2022-07-29T04:47:41.477Z,56.11
2022-07-29T04:48:48.009Z,56.06
2022-07-29T04:49:54.820Z,55.66
2022-07-29T04:50:59.052Z,56.03
2022-07-29T04:52:03.252Z,55.83
2022-07-29T04:53:06.289Z,55.74
2022-07-29T04:54:10.585Z,55.93
2022-07-29T04:55:13.709Z,55.87
2022-07-29T04:56:17.875Z,55.96
2022-07-29T04:57:20.967Z,56.06
2022-07-29T04:58:25.583Z,55.83
2022-07-29T04:59:28.711Z,55.92
2022-07-29T05:00:33.532Z,55.77
2022-07-29T05:01:36.905Z,56.11
2022-07-29T05:02:41.127Z,55.99
2022-07-29T05:03:44.148Z,56.15
2022-07-29T05:04:48.248Z,56.24
2022-07-29T05:05:54.014Z,56.41
2022-07-29T05:06:57.037Z,56.34
2022-07-29T05:08:01.309Z,56.69
2022-07-29T05:09:04.456Z,56.71
2022-07-29T05:10:09.151Z,56.57
2022-07-29T05:11:14.170Z,56.72
2022-07-29T05:12:20.158Z,56.68
2022-07-29T05:13:23.287Z,56.50
2022-07-29T05:14:27.348Z,56.62
2022-07-29T05:15:31.339Z,56.57
2022-07-29T05:16:35.733Z,56.89
2022-07-29T05:17:38.924Z,56.78
2022-07-29T05:18:43.328Z,56.67
2022-07-29T05:19:46.465Z,56.93
2022-07-29T05:20:50.563Z,56.89
2022-07-29T05:21:55.151Z,56.75
2022-07-29T05:22:59.897Z,56.79
2022-07-29T05:24:02.956Z,56.61
2022-07-29T05:25:09.277Z,56.66
2022-07-29T05:26:13.239Z,56.84
2022-07-29T05:27:17.347Z,56.80
2022-07-29T05:28:20.309Z,56.87
2022-07-29T05:29:42.615Z,56.59
2022-07-29T05:30:48.012Z,56.67
2022-07-29T05:31:52.687Z,56.45
2022-07-29T05:32:56.881Z,56.57
2022-07-29T05:34:00.016Z,56.68
2022-07-29T05:35:04.199Z,56.82
2022-07-29T05:36:08.365Z,56.59
2022-07-29T05:37:14.598Z,56.42
2022-07-29T05:38:17.628Z,56.40
2022-07-29T05:39:21.738Z,56.22
2022-07-29T05:40:24.962Z,56.03
2022-07-29T05:41:29.427Z,55.93
2022-07-29T05:42:32.525Z,55.79
2022-07-29T05:43:36.657Z,55.58
2022-07-29T05:44:39.707Z,55.30
2022-07-29T05:45:50.005Z,54.96
2022-07-29T05:46:53.606Z,55.17
2022-07-29T05:47:58.340Z,54.85
2022-07-29T05:49:01.553Z,54.54
2022-07-29T05:50:06.969Z,54.32
2022-07-29T05:51:09.980Z,54.39
2022-07-29T05:52:15.617Z,53.91
2022-07-29T05:53:20.012Z,54.03
2022-07-29T05:54:24.904Z,53.83
2022-07-29T05:55:27.855Z,53.69
2022-07-29T05:56:32.037Z,53.79
2022-07-29T05:57:35.136Z,53.52
2022-07-29T05:58:39.265Z,53.13
2022-07-29T05:59:42.938Z,53.19
2022-07-29T06:00:47.489Z,52.97
2022-07-29T06:01:50.778Z,52.55
2022-07-29T06:02:55.087Z,52.71
2022-07-29T06:03:58.187Z,52.37
2022-07-29T06:05:02.359Z,52.26
2022-07-29T06:06:05.548Z,52.43
2022-07-29T06:07:09.852Z,52.12
2022-07-29T06:08:14.504Z,51.73
2022-07-29T06:09:18.591Z,51.58
2022-07-29T06:10:23.916Z,50.84
2022-07-29T06:11:30.695Z,51.24
2022-07-29T06:12:33.948Z,51.14
2022-07-29T06:13:38.044Z,50.82
2022-07-29T06:14:41.558Z,50.31
2022-07-29T06:15:45.866Z,50.89
2022-07-29T06:16:50.087Z,50.67
2022-07-29T06:18:00.543Z,50.57
2022-07-29T06:19:05.845Z,50.92
2022-07-29T06:20:12.389Z,50.54
2022-07-29T06:21:15.527Z,50.60
2022-07-29T06:22:19.663Z,50.25
2022-07-29T06:23:24.353Z,50.12
2022-07-29T06:24:28.498Z,49.44
2022-07-29T06:25:32.109Z,49.57
2022-07-29T06:26:39.699Z,50.01
2022-07-29T06:27:43.254Z,50.31
2022-07-29T06:28:47.340Z,50.38
2022-07-29T06:29:55.278Z,50.03
2022-07-29T06:30:59.018Z,49.56
2022-07-29T06:32:03.450Z,49.59
2022-07-29T06:33:06.811Z,49.26
2022-07-29T06:34:11.550Z,48.97
2022-07-29T06:36:41.124Z,48.71
2022-07-29T06:37:44.301Z,48.92
2022-07-29T06:38:52.300Z,48.93
2022-07-29T06:40:11.547Z,48.60
2022-07-29T06:41:17.247Z,48.46
2022-07-29T06:42:22.296Z,48.53
2022-07-29T06:43:25.448Z,47.98
2022-07-29T06:44:30.989Z,48.18
2022-07-29T06:45:35.612Z,48.00
2022-07-29T06:46:39.894Z,47.81
2022-07-29T06:47:43.311Z,47.76
2022-07-29T06:48:48.678Z,47.14
2022-07-29T06:49:52.920Z,47.22
2022-07-29T06:50:56.185Z,46.79
2022-07-29T06:52:00.314Z,46.85
2022-07-29T06:53:03.380Z,47.55
2022-07-29T06:54:08.955Z,47.67
2022-07-29T06:55:12.175Z,47.38
2022-07-29T06:56:29.427Z,47.63
2022-07-29T06:57:32.476Z,47.12
2022-07-29T06:58:37.110Z,47.05
2022-07-29T06:59:41.284Z,46.64
2022-07-29T07:00:44.349Z,46.44
2022-07-29T07:01:48.472Z,46.89
2022-07-29T07:02:51.629Z,46.33
2022-07-29T07:03:55.796Z,46.34
2022-07-29T07:04:59.883Z,46.14
2022-07-29T07:06:04.633Z,45.56
2022-07-29T07:07:07.753Z,46.23
2022-07-29T07:08:12.194Z,46.19
2022-07-29T07:09:16.684Z,46.49
2022-07-29T07:10:21.096Z,46.27
2022-07-29T07:11:25.297Z,46.17
2022-07-29T07:12:28.570Z,45.80
2022-07-29T07:13:36.820Z,45.24
2022-07-29T07:14:41.046Z,45.63
2022-07-29T07:15:45.291Z,45.63
2022-07-29T07:16:49.458Z,45.15
2022-07-29T07:17:55.839Z,45.45
2022-07-29T07:19:00.003Z,45.01
2022-07-29T07:20:03.106Z,44.77
2022-07-29T07:21:07.430Z,44.60
2022-07-29T07:22:10.685Z,44.44
2022-07-29T07:23:15.316Z,43.87
2022-07-29T07:24:20.866Z,44.12
2022-07-29T07:25:23.866Z,44.56
2022-07-29T07:26:28.252Z,44.32
2022-07-29T07:27:31.420Z,43.36
2022-07-29T07:28:35.566Z,43.57
2022-07-29T07:29:44.319Z,43.76
2022-07-29T07:30:47.646Z,43.79
2022-07-29T07:31:51.841Z,43.88
2022-07-29T07:32:55.255Z,44.35
2022-07-29T07:33:59.466Z,44.48
2022-07-29T07:35:03.531Z,45.07
2022-07-29T07:36:07.996Z,44.62
2022-07-29T07:37:11.114Z,44.54
2022-07-29T07:38:15.391Z,44.72
2022-07-29T07:39:20.006Z,44.13
2022-07-29T07:40:24.556Z,44.53
2022-07-29T07:41:32.297Z,44.50
2022-07-29T07:42:36.146Z,44.17
2022-07-29T07:43:40.537Z,44.63
2022-07-29T07:45:11.095Z,45.11
2022-07-29T07:46:08.258Z,44.91
2022-07-29T07:47:12.565Z,44.61
2022-07-29T07:48:16.876Z,44.75
2022-07-29T07:49:20.182Z,44.62
2022-07-29T07:50:24.386Z,44.77
2022-07-29T07:51:28.146Z,45.08
2022-07-29T07:52:32.265Z,45.06
2022-07-29T07:53:35.376Z,44.98
2022-07-29T07:54:41.366Z,45.36
2022-07-29T07:57:10.265Z,45.16
2022-07-29T07:58:14.447Z,44.79
2022-07-29T07:59:17.628Z,44.45
2022-07-29T08:00:22.801Z,44.51
2022-07-29T08:01:28.053Z,44.16
2022-07-29T08:02:31.137Z,43.61
2022-07-29T08:03:35.634Z,43.43
2022-07-29T08:04:41.566Z,43.68
2022-07-29T08:05:46.074Z,43.67
2022-07-29T08:06:51.013Z,43.31
2022-07-29T08:07:55.313Z,43.20
2022-07-29T08:09:19.499Z,43.43
2022-07-29T08:10:38.681Z,43.24
2022-07-29T08:11:52.012Z,43.25
2022-07-29T08:12:55.498Z,43.20
2022-07-29T08:13:59.913Z,43.14
2022-07-29T08:15:04.097Z,42.92
2022-07-29T08:16:14.093Z,42.19
2022-07-29T08:17:18.416Z,42.35
2022-07-29T08:18:21.445Z,42.32
2022-07-29T08:19:25.636Z,42.33
2022-07-29T08:20:28.683Z,42.81
2022-07-29T08:21:32.846Z,42.53
2022-07-29T08:22:36.008Z,42.43
2022-07-29T08:23:46.201Z,42.21
2022-07-29T08:24:55.741Z,41.83
2022-07-29T08:26:01.296Z,41.65
2022-07-29T08:27:12.859Z,41.95
2022-07-29T08:28:28.699Z,41.48
2022-07-29T08:29:31.694Z,41.65
2022-07-29T08:30:36.062Z,41.55
2022-07-29T08:31:40.121Z,41.53
2022-07-29T08:32:53.894Z,41.63
2022-07-29T08:33:57.738Z,41.48
2022-07-29T08:35:02.993Z,41.10
2022-07-29T08:36:07.191Z,41.76
2022-07-29T08:37:11.427Z,41.62
2022-07-29T08:38:15.350Z,41.46
2022-07-29T08:39:19.584Z,41.52
2022-07-29T08:40:32.268Z,41.03
2022-07-29T08:41:38.313Z,41.62
2022-07-29T08:42:42.514Z,40.91
2022-07-29T08:43:45.862Z,41.62
2022-07-29T08:44:50.007Z,41.60
2022-07-29T08:45:53.555Z,41.57
2022-07-29T08:46:57.709Z,41.31
2022-07-29T08:48:00.730Z,41.19
2022-07-29T08:49:04.997Z,41.42
2022-07-29T08:50:09.184Z,40.73
2022-07-29T08:51:16.379Z,40.35
2022-07-29T08:52:20.872Z,40.90
2022-07-29T08:53:27.986Z,40.59
2022-07-29T08:54:32.435Z,40.25
2022-07-29T08:55:35.597Z,40.75
2022-07-29T08:56:42.313Z,39.87
2022-07-29T08:57:54.474Z,39.95
2022-07-29T08:59:02.170Z,39.84
2022-07-29T09:00:12.253Z,40.08
2022-07-29T09:01:19.826Z,39.42
2022-07-29T09:02:24.803Z,39.84
2022-07-29T09:03:33.238Z,39.73
2022-07-29T09:04:38.776Z,39.38
2022-07-29T09:05:47.770Z,39.71
2022-07-29T09:06:54.406Z,39.79
2022-07-29T09:07:57.660Z,39.28
2022-07-29T09:09:02.708Z,39.01
2022-07-29T09:10:08.194Z,38.78
2022-07-29T09:11:12.763Z,38.53
2022-07-29T09:12:29.066Z,38.90
2022-07-29T09:13:33.164Z,38.65
2022-07-29T09:14:37.337Z,38.30
2022-07-29T09:15:40.408Z,38.83
2022-07-29T09:16:55.494Z,38.30
2022-07-29T09:17:59.576Z,38.85
2022-07-29T09:19:03.636Z,38.53
2022-07-29T09:20:11.051Z,38.22
2022-07-29T09:21:33.717Z,38.33
2022-07-29T09:22:41.894Z,38.52
2022-07-29T09:24:01.465Z,37.81
2022-07-29T09:25:06.298Z,37.82
2022-07-29T09:26:09.475Z,38.14
2022-07-29T09:27:23.291Z,37.96
2022-07-29T09:28:27.542Z,38.14
2022-07-29T09:29:35.738Z,38.33
2022-07-29T09:30:52.736Z,36.46
2022-07-29T09:31:57.724Z,37.51
2022-07-29T09:33:02.764Z,37.88
2022-07-29T09:34:08.314Z,37.72
2022-07-29T09:35:20.026Z,36.83
2022-07-29T09:36:23.441Z,37.74
2022-07-29T09:37:31.223Z,37.39
2022-07-29T09:38:34.818Z,37.37
2022-07-29T09:39:45.422Z,37.60
2022-07-29T09:40:57.888Z,37.56
2022-07-29T09:42:10.107Z,38.22
2022-07-29T09:43:15.386Z,37.38
2022-07-29T09:44:19.648Z,37.73
2022-07-29T09:45:31.610Z,37.79
2022-07-29T09:46:34.717Z,37.50
2022-07-29T09:47:48.207Z,36.97
2022-07-29T09:49:10.243Z,36.52
2022-07-29T09:50:14.596Z,37.24
2022-07-29T09:51:24.190Z,37.07
2022-07-29T09:52:32.388Z,36.72
2022-07-29T09:53:37.512Z,36.89
2022-07-29T09:54:42.307Z,36.93
2022-07-29T09:55:49.677Z,37.08
2022-07-29T09:56:54.159Z,37.02
2022-07-29T09:58:19.276Z,36.17
2022-07-29T09:59:23.646Z,37.06
2022-07-29T10:00:27.876Z,36.80
2022-07-29T10:01:31.093Z,36.88
2022-07-29T10:02:36.767Z,36.37
2022-07-29T10:03:54.227Z,36.14
2022-07-29T10:04:57.267Z,36.99
2022-07-29T10:06:08.967Z,36.08
2022-07-29T10:07:12.088Z,36.92
2022-07-29T10:08:16.144Z,36.82
2022-07-29T10:09:19.213Z,36.70
2022-07-29T10:10:28.349Z,36.38
2022-07-29T10:11:48.996Z,36.61
2022-07-29T10:12:56.254Z,36.69
2022-07-29T10:14:00.825Z,36.02
2022-07-29T10:15:05.305Z,35.65
2022-07-29T10:16:09.705Z,35.21
2022-07-29T10:17:14.017Z,35.47
2022-07-29T10:18:18.682Z,35.37
2022-07-29T10:19:23.207Z,35.27
2022-07-29T10:20:28.640Z,35.00
2022-07-29T10:21:36.307Z,35.25
2022-07-29T10:22:53.032Z,35.56
2022-07-29T10:24:01.406Z,35.27
2022-07-29T10:25:06.396Z,35.18
2022-07-29T10:26:11.896Z,34.81
2022-07-29T10:27:16.350Z,34.98
2022-07-29T10:28:19.365Z,35.13
2022-07-29T10:29:25.151Z,34.77
2022-07-29T10:30:29.794Z,34.72
2022-07-29T10:31:49.580Z,33.47
2022-07-29T10:33:15.877Z,33.90
2022-07-29T10:34:28.000Z,34.48
2022-07-29T10:35:47.778Z,33.57
2022-07-29T10:36:56.587Z,34.30
2022-07-29T10:38:33.686Z,34.21
2022-07-29T10:39:49.720Z,34.96
2022-07-29T10:41:19.307Z,34.64
2022-07-29T10:42:29.772Z,35.12
2022-07-29T10:43:39.501Z,34.95
2022-07-29T10:44:48.137Z,35.17
2022-07-29T10:45:57.474Z,35.06
2022-07-29T10:47:02.148Z,35.36
2022-07-29T10:48:07.854Z,35.41
2022-07-29T10:49:16.770Z,35.42
2022-07-29T10:50:21.215Z,35.75
2022-07-29T10:51:25.898Z,35.89
2022-07-29T10:52:58.749Z,36.24
2022-07-29T10:54:06.848Z,36.83
2022-07-29T10:55:32.845Z,36.51
2022-07-29T10:56:35.990Z,36.97
2022-07-29T10:57:53.251Z,36.39
2022-07-29T10:59:26.858Z,34.75
2022-07-29T11:00:38.128Z,36.03
2022-07-29T11:01:49.342Z,35.59
2022-07-29T11:02:59.429Z,35.32
2022-07-29T11:04:05.388Z,35.50
2022-07-29T11:05:13.018Z,35.50
2022-07-29T11:06:18.020Z,35.04
2022-07-29T11:07:41.598Z,35.27
2022-07-29T11:09:27.359Z,35.25
2022-07-29T11:10:41.575Z,35.74
2022-07-29T11:11:51.359Z,35.27
2022-07-29T11:12:54.958Z,35.54
2022-07-29T11:13:59.426Z,35.52
2022-07-29T11:15:03.816Z,35.82
2022-07-29T11:16:09.746Z,35.81
2022-07-29T11:17:15.489Z,35.70
2022-07-29T11:18:19.143Z,35.96
2022-07-29T11:19:30.368Z,35.80
2022-07-29T11:20:39.147Z,36.52
2022-07-29T11:22:05.411Z,36.90
2022-07-29T11:23:25.239Z,37.13
2022-07-29T11:24:32.423Z,36.98
2022-07-29T11:25:50.048Z,37.20
2022-07-29T11:27:13.795Z,36.18
2022-07-29T11:28:23.190Z,36.41
2022-07-29T11:29:55.733Z,36.28
2022-07-29T11:31:00.546Z,36.57
2022-07-29T11:32:18.254Z,36.31
2022-07-29T11:33:54.271Z,36.55
2022-07-29T11:35:17.221Z,35.98
2022-07-29T11:36:28.392Z,36.32
2022-07-29T11:37:32.698Z,36.17
2022-07-29T11:38:45.696Z,36.46
2022-07-29T11:40:10.955Z,36.26
2022-07-29T11:41:25.944Z,36.16
2022-07-29T11:42:48.063Z,35.84
2022-07-29T11:43:59.387Z,36.70
2022-07-29T11:45:09.034Z,36.25
2022-07-29T11:46:47.991Z,36.78
2022-07-29T11:47:54.853Z,36.71
2022-07-29T11:48:59.092Z,37.05
2022-07-29T11:50:03.756Z,37.08
2022-07-29T11:51:14.676Z,37.11
2022-07-29T11:52:19.730Z,36.80
2022-07-29T11:53:29.277Z,37.18
2022-07-29T11:54:57.065Z,36.63
2022-07-29T11:56:02.829Z,36.57
2022-07-29T11:57:08.543Z,36.80
2022-07-29T11:58:13.396Z,36.71
2022-07-29T11:59:18.031Z,37.46
2022-07-29T12:00:31.382Z,36.88
2022-07-29T12:01:35.595Z,36.85
2022-07-29T12:02:43.526Z,36.36
2022-07-29T12:05:37.720Z,36.03
2022-07-29T12:06:40.879Z,36.22
2022-07-29T12:07:45.421Z,35.94
2022-07-29T12:08:51.349Z,36.59
2022-07-29T12:09:56.839Z,35.88
2022-07-29T12:11:01.485Z,36.03
2022-07-29T12:12:06.066Z,35.63
2022-07-29T12:13:10.614Z,35.77
2022-07-29T12:14:28.118Z,35.48
2022-07-29T12:15:45.980Z,35.50
2022-07-29T12:16:51.610Z,35.22
2022-07-29T12:17:54.729Z,34.49
2022-07-29T12:19:04.134Z,34.15
2022-07-29T12:20:07.676Z,34.73
2022-07-29T12:21:12.662Z,34.18
2022-07-29T12:22:26.337Z,33.60
2022-07-29T12:23:34.978Z,33.82
2022-07-29T12:24:45.039Z,33.07
2022-07-29T12:25:49.649Z,33.45
2022-07-29T12:26:54.236Z,33.05
2022-07-29T12:28:01.838Z,33.49
2022-07-29T12:29:11.370Z,33.47
2022-07-29T12:30:19.027Z,32.88
2022-07-29T12:31:42.213Z,32.87
2022-07-29T12:32:49.798Z,33.39
2022-07-29T12:33:56.120Z,33.31
2022-07-29T12:35:04.665Z,32.88
2022-07-29T12:36:17.424Z,33.10
2022-07-29T12:37:31.876Z,33.18
2022-07-29T12:38:45.443Z,33.34
2022-07-29T12:39:48.577Z,33.41
2022-07-29T12:40:54.686Z,32.98
2022-07-29T12:42:03.777Z,33.20
2022-07-29T12:43:11.675Z,33.09
2022-07-29T12:44:15.877Z,33.17
2022-07-29T12:45:19.156Z,33.24
2022-07-29T12:46:23.442Z,33.36
2022-07-29T12:47:26.859Z,33.43
2022-07-29T12:48:41.167Z,33.11
2022-07-29T12:49:44.210Z,33.67
2022-07-29T12:51:00.467Z,33.12
2022-07-29T12:52:30.616Z,32.50
2022-07-29T12:53:36.049Z,33.72
2022-07-29T12:54:48.277Z,32.66
2022-07-29T12:55:53.948Z,33.08
2022-07-29T12:57:00.574Z,32.97
2022-07-29T12:58:04.867Z,33.71
2022-07-29T12:59:17.897Z,33.13
2022-07-29T13:00:24.737Z,33.19
2022-07-29T13:01:28.931Z,33.02
2022-07-29T13:02:32.246Z,32.21
2022-07-29T13:03:57.102Z,31.56
2022-07-29T13:05:02.042Z,32.41
2022-07-29T13:06:07.833Z,31.74
2022-07-29T13:07:12.989Z,31.77
2022-07-29T13:08:21.917Z,31.79
2022-07-29T13:09:25.277Z,31.62
2022-07-29T13:10:30.569Z,32.00
2022-07-29T13:11:34.347Z,32.36
2022-07-29T13:12:39.513Z,32.64
2022-07-29T13:14:07.223Z,32.25
2022-07-29T13:15:18.570Z,32.20
2022-07-29T13:16:21.737Z,32.85
2022-07-29T13:17:32.805Z,32.93
2022-07-29T13:18:37.473Z,33.22
2022-07-29T13:19:43.125Z,33.08
2022-07-29T13:20:46.239Z,32.47
2022-07-29T13:21:51.830Z,32.86
2022-07-29T13:22:54.942Z,32.94
2022-07-29T13:23:59.106Z,32.73
2022-07-29T13:25:04.635Z,32.67
2022-07-29T13:26:08.712Z,32.84
2022-07-29T13:27:21.767Z,33.10
2022-07-29T13:28:24.968Z,33.04
2022-07-29T13:29:31.658Z,32.87
2022-07-29T13:30:36.172Z,33.06
2022-07-29T13:31:47.920Z,33.18
2022-07-29T13:32:52.650Z,33.45
2022-07-29T13:33:55.847Z,33.41
2022-07-29T13:35:05.462Z,33.34
2022-07-29T13:36:08.987Z,33.65
2022-07-29T13:37:14.711Z,33.62
2022-07-29T13:38:18.079Z,33.83
2022-07-29T13:39:22.458Z,33.65
2022-07-29T13:40:27.156Z,33.68
2022-07-29T13:41:31.387Z,33.91
2022-07-29T13:42:35.410Z,33.57
2022-07-29T13:43:39.624Z,33.39
2022-07-29T13:44:43.011Z,33.60
2022-07-29T13:45:47.182Z,33.91
2022-07-29T13:46:50.246Z,34.14
2022-07-29T13:47:54.477Z,33.82
2022-07-29T13:48:58.685Z,34.14
2022-07-29T13:50:02.235Z,34.24
2022-07-29T13:51:06.355Z,33.82
2022-07-29T13:52:10.617Z,33.88
2022-07-29T13:53:17.543Z,33.79
2022-07-29T13:54:22.288Z,33.51
2022-07-29T13:55:26.794Z,33.69
2022-07-29T13:56:29.725Z,33.51
2022-07-29T13:57:33.888Z,33.26
2022-07-29T13:58:38.192Z,33.33
2022-07-29T13:59:43.060Z,32.61
2022-07-29T14:00:47.877Z,33.17
2022-07-29T14:01:50.958Z,33.03
2022-07-29T14:02:55.156Z,33.16
2022-07-29T14:03:58.267Z,33.01
2022-07-29T14:05:07.712Z,33.45
2022-07-29T14:06:12.764Z,33.04
2022-07-29T14:07:16.433Z,32.96
2022-07-29T14:08:22.315Z,32.79
2022-07-29T14:09:27.421Z,32.57
2022-07-29T14:10:31.497Z,32.21
2022-07-29T14:11:35.767Z,32.64
2022-07-29T14:12:43.136Z,32.91
2022-07-29T14:13:46.290Z,33.01
2022-07-29T14:14:50.556Z,33.49
2022-07-29T14:15:53.583Z,33.33
2022-07-29T14:16:57.751Z,33.33
2022-07-29T14:18:01.987Z,33.62
2022-07-29T14:19:05.065Z,33.75
2022-07-29T14:20:09.953Z,33.58
2022-07-29T14:21:13.640Z,33.79
2022-07-29T14:22:20.196Z,33.79
2022-07-29T14:23:28.927Z,33.81
2022-07-29T14:24:32.639Z,33.59
2022-07-29T14:25:42.086Z,33.62
2022-07-29T14:26:47.660Z,33.62
2022-07-29T14:27:51.825Z,33.22